createdAt,value
2023-04-28T00:00:06.479Z,50338.38
2023-04-28T00:02:54.839Z,50325.18
2023-04-28T00:05:23.466Z,50335.98
2023-04-28T00:07:52.939Z,50319.58
2023-04-28T00:10:21.274Z,50334.38
2023-04-28T00:12:50.085Z,50328.38
2023-04-28T00:15:18.357Z,50338.38
2023-04-28T00:17:46.726Z,50312.79
2023-04-28T00:20:15.568Z,50332.38
2023-04-28T00:22:43.814Z,50336.78
2023-04-28T00:25:12.041Z,50319.18
2023-04-28T00:27:40.189Z,50333.98
2023-04-28T00:30:09.512Z,50341.57
2023-04-28T00:32:37.738Z,50352.38
2023-04-28T00:35:07.255Z,50326.38
2023-04-28T00:37:39.645Z,50328.78
2023-04-28T00:40:08.574Z,50332.38
2023-04-28T00:42:37.148Z,50350.77
2023-04-28T00:45:07.479Z,50353.98
2023-04-28T00:47:37.768Z,50336.78
2023-04-28T00:50:06.856Z,50340.77
2023-04-28T00:52:38.230Z,50335.98
2023-04-28T00:55:09.376Z,50353.18
2023-04-28T00:57:37.603Z,50346.77
2023-04-28T01:00:06.749Z,50348.77
2023-04-28T01:02:36.689Z,50343.98
2023-04-28T01:05:05.622Z,50355.17
2023-04-28T01:07:35.055Z,50341.18
2023-04-28T01:10:04.424Z,50347.18
2023-04-28T01:12:33.477Z,50352.77
2023-04-28T01:15:02.386Z,50351.18
2023-04-28T01:17:31.490Z,50327.58
2023-04-28T01:20:01.344Z,50346.77
2023-04-28T01:22:29.773Z,50335.98
2023-04-28T01:25:00.363Z,50347.98
2023-04-28T01:27:30.077Z,50355.18
2023-04-28T01:29:58.677Z,50333.98
2023-04-28T01:32:27.001Z,50334.38
2023-04-28T01:34:55.185Z,50342.77
2023-04-28T01:37:24.144Z,50344.77
2023-04-28T01:39:52.441Z,50363.97
2023-04-28T01:42:20.763Z,50343.98
2023-04-28T01:44:49.003Z,50352.38
2023-04-28T01:47:17.861Z,50350.38
2023-04-28T01:49:48.303Z,50346.38
2023-04-28T01:52:16.598Z,50352.77
2023-04-28T01:54:44.839Z,50345.98
2023-04-28T01:57:13.032Z,50351.57
2023-04-28T01:59:42.207Z,50366.37
2023-04-28T02:02:12.844Z,50357.97
2023-04-28T02:04:41.435Z,50353.57
2023-04-28T02:07:10.210Z,50343.18
2023-04-28T02:09:38.514Z,50357.97
2023-04-28T02:12:06.786Z,50349.18
2023-04-28T02:14:35.948Z,50358.37
2023-04-28T02:17:05.603Z,50358.38
2023-04-28T02:19:35.018Z,50363.97
2023-04-28T02:22:03.314Z,50369.17
2023-04-28T02:24:35.571Z,50352.38
2023-04-28T02:27:05.804Z,50357.57
2023-04-28T02:29:34.059Z,50360.77
2023-04-28T02:32:03.785Z,50365.97
2023-04-28T02:34:32.391Z,50375.16
2023-04-28T02:37:00.616Z,50367.97
2023-04-28T02:39:30.244Z,50363.57
2023-04-28T02:41:58.809Z,50383.56
2023-04-28T02:44:27.211Z,50377.97
2023-04-28T02:46:55.443Z,50373.17
2023-04-28T02:49:26.690Z,50359.57
2023-04-28T02:51:54.909Z,50381.57
2023-04-28T02:54:31.147Z,50384.77
2023-04-28T02:56:59.286Z,50364.77
2023-04-28T02:59:27.565Z,50375.57
2023-04-28T03:01:56.002Z,50376.77
2023-04-28T03:04:24.391Z,50377.97
2023-04-28T03:06:53.194Z,50379.57
2023-04-28T03:09:21.491Z,50372.77
2023-04-28T03:11:49.744Z,50379.17
2023-04-28T03:14:18.093Z,50377.57
2023-04-28T03:16:46.569Z,50384.36
2023-04-28T03:19:15.711Z,50377.17
2023-04-28T03:21:44.135Z,50373.97
2023-04-28T03:24:14.322Z,50370.37
2023-04-28T03:26:43.170Z,50375.97
2023-04-28T03:29:11.719Z,50375.97
2023-04-28T03:31:40.110Z,50373.57
2023-04-28T03:34:08.391Z,50369.96
2023-04-28T03:36:37.917Z,50386.76
2023-04-28T03:39:11.690Z,50384.36
2023-04-28T03:41:39.874Z,50384.36
2023-04-28T03:44:27.349Z,50370.37
2023-04-28T03:46:55.714Z,50373.57
2023-04-28T03:49:24.231Z,50373.16
2023-04-28T03:51:53.484Z,50371.16
2023-04-28T03:54:21.987Z,50375.57
2023-04-28T03:56:50.255Z,50378.76
2023-04-28T03:59:18.959Z,50359.98
2023-04-28T04:01:47.883Z,50357.98
2023-04-28T04:04:16.493Z,50361.57
2023-04-28T04:06:45.842Z,50353.18
2023-04-28T04:09:14.386Z,50367.96
2023-04-28T04:11:42.668Z,50350.77
2023-04-28T04:14:11.580Z,50366.37
2023-04-28T04:16:39.854Z,50353.98
2023-04-28T04:19:08.865Z,50376.37
2023-04-28T04:21:42.419Z,50359.17
2023-04-28T04:24:10.798Z,50341.57
2023-04-28T04:26:39.400Z,50345.57
2023-04-28T04:29:22.231Z,50351.98
2023-04-28T04:31:50.566Z,50342.77
2023-04-28T04:34:18.982Z,50348.38
2023-04-28T04:36:47.807Z,50331.58
2023-04-28T04:39:16.163Z,50331.98
2023-04-28T04:41:44.396Z,50326.78
2023-04-28T04:44:32.937Z,50330.78
2023-04-28T04:47:02.808Z,50339.98
2023-04-28T04:49:32.700Z,50333.98
2023-04-28T04:52:01.763Z,50339.58
2023-04-28T04:54:30.682Z,50329.18
2023-04-28T04:57:00.421Z,50343.18
2023-04-28T04:59:51.693Z,50317.59
2023-04-28T05:02:20.799Z,50323.98
2023-04-28T05:04:49.913Z,50340.38
2023-04-28T05:07:18.412Z,50308.79
2023-04-28T05:09:46.721Z,50309.19
2023-04-28T05:12:14.952Z,50333.58
2023-04-28T05:14:44.006Z,50313.19
2023-04-28T05:17:12.572Z,50323.19
2023-04-28T05:19:42.477Z,50317.59
2023-04-28T05:22:11.744Z,50321.58
2023-04-28T05:24:40.051Z,50312.79
2023-04-28T05:27:08.298Z,50320.38
2023-04-28T05:29:36.659Z,50305.99
2023-04-28T05:32:05.156Z,50309.59
2023-04-28T05:34:34.937Z,50309.18
2023-04-28T05:37:03.407Z,50313.59
2023-04-28T05:39:34.694Z,50304.79
2023-04-28T05:42:04.756Z,50309.59
2023-04-28T05:44:33.277Z,50308.39
2023-04-28T05:47:01.956Z,50286.79
2023-04-28T05:49:30.352Z,50326.38
2023-04-28T05:51:58.797Z,50292.39
2023-04-28T05:54:27.557Z,50305.99
2023-04-28T05:57:00.152Z,50287.99
2023-04-28T05:59:31.679Z,50312.38
2023-04-28T06:02:00.031Z,50291.99
2023-04-28T06:04:28.541Z,50285.60
2023-04-28T06:06:57.416Z,50297.20
2023-04-28T06:09:26.073Z,50293.59
2023-04-28T06:11:54.892Z,50281.59
2023-04-28T06:14:23.713Z,50287.99
2023-04-28T06:16:52.041Z,50292.39
2023-04-28T06:19:20.423Z,50289.20
2023-04-28T06:21:51.671Z,50293.20
2023-04-28T06:24:21.279Z,50279.60
2023-04-28T06:26:51.952Z,50297.19
2023-04-28T06:29:21.077Z,50295.19
2023-04-28T06:31:50.282Z,50277.60
2023-04-28T06:34:20.136Z,50301.19
2023-04-28T06:36:48.637Z,50277.60
2023-04-28T06:39:16.986Z,50286.39
2023-04-28T06:41:45.374Z,50268.00
2023-04-28T06:44:14.961Z,50250.41
2023-04-28T06:46:43.860Z,50270.80
2023-04-28T06:49:12.075Z,50272.80
2023-04-28T06:51:40.414Z,50261.21
2023-04-28T06:54:08.647Z,50271.20
2023-04-28T06:56:36.858Z,50264.00
2023-04-28T06:59:05.374Z,50268.40
2023-04-28T07:01:33.629Z,50256.01
2023-04-28T07:04:02.033Z,50263.60
2023-04-28T07:06:31.935Z,50261.20
2023-04-28T07:09:00.282Z,50248.41
2023-04-28T07:11:28.564Z,50248.01
2023-04-28T07:13:56.933Z,50247.21
2023-04-28T07:16:26.012Z,50247.61
2023-04-28T07:18:56.285Z,50246.80
2023-04-28T07:21:24.504Z,50240.01
2023-04-28T07:23:52.705Z,50233.61
2023-04-28T07:26:21.675Z,50236.41
2023-04-28T07:28:49.893Z,50231.62
2023-04-28T07:31:18.363Z,50232.81
2023-04-28T07:33:46.841Z,50217.22
2023-04-28T07:36:15.700Z,50236.41
2023-04-28T07:38:44.805Z,50225.21
2023-04-28T07:41:14.875Z,50218.02
2023-04-28T07:43:43.177Z,50216.42
2023-04-28T07:46:13.343Z,50230.81
2023-04-28T07:48:43.329Z,50232.01
2023-04-28T07:51:12.544Z,50209.22
2023-04-28T07:53:40.880Z,50203.63
2023-04-28T07:56:09.393Z,50210.42
2023-04-28T07:58:38.110Z,50204.42
2023-04-28T08:01:07.360Z,50205.22
2023-04-28T08:03:35.889Z,50190.43
2023-04-28T08:06:04.524Z,50196.42
2023-04-28T08:08:33.030Z,50212.82
2023-04-28T08:11:19.283Z,50188.83
2023-04-28T08:14:05.191Z,50195.63
2023-04-28T08:16:36.877Z,50199.63
2023-04-28T08:19:05.515Z,50195.63
2023-04-28T08:21:51.756Z,50181.63
2023-04-28T08:24:37.440Z,50180.83
2023-04-28T08:27:05.667Z,50178.43
2023-04-28T08:29:34.840Z,50179.23
2023-04-28T08:32:03.304Z,50174.83
2023-04-28T08:34:31.521Z,50157.64
2023-04-28T08:37:02.972Z,50189.23
2023-04-28T08:39:34.573Z,50174.04
2023-04-28T08:42:07.450Z,50156.84
2023-04-28T08:44:40.976Z,50171.23
2023-04-28T08:47:14.515Z,50170.84
2023-04-28T08:49:45.244Z,50168.03
2023-04-28T08:52:17.653Z,50164.44
2023-04-28T08:54:49.930Z,50151.64
2023-04-28T08:57:20.978Z,50169.64
2023-04-28T08:59:51.384Z,50168.44
2023-04-28T09:02:20.568Z,50183.63
2023-04-28T09:04:52.327Z,50171.23
2023-04-28T09:07:20.925Z,50164.44
2023-04-28T09:09:49.520Z,50152.44
2023-04-28T09:12:18.793Z,50162.04
2023-04-28T09:14:58.724Z,50166.04
2023-04-28T09:17:27.104Z,50174.03
2023-04-28T09:19:55.561Z,50155.64
2023-04-28T09:22:28.797Z,50179.23
2023-04-28T09:24:57.357Z,50173.23
2023-04-28T09:27:28.974Z,50159.64
2023-04-28T09:29:58.279Z,50161.23
2023-04-28T09:32:28.384Z,50163.24
2023-04-28T09:34:57.711Z,50150.84
2023-04-28T09:37:27.597Z,50158.44
2023-04-28T09:39:56.832Z,50170.84
2023-04-28T09:42:47.086Z,50153.64
2023-04-28T09:45:17.666Z,50148.04
2023-04-28T09:47:48.375Z,50161.64
2023-04-28T09:50:18.517Z,50142.45
2023-04-28T09:52:57.506Z,50146.04
2023-04-28T09:55:28.889Z,50156.04
2023-04-28T09:58:01.765Z,50138.45
2023-04-28T10:00:31.802Z,50133.25
2023-04-28T10:03:01.398Z,50140.05
2023-04-28T10:05:31.300Z,50138.04
2023-04-28T10:08:03.955Z,50137.24
2023-04-28T10:10:33.097Z,50138.84
2023-04-28T10:13:03.287Z,50130.85
2023-04-28T10:15:33.815Z,50130.45
2023-04-28T10:18:04.411Z,50149.64
2023-04-28T10:20:34.246Z,50153.24
2023-04-28T10:23:40.287Z,50162.04
2023-04-28T10:26:13.207Z,50147.64
2023-04-28T10:28:49.866Z,50129.65
2023-04-28T10:31:23.146Z,50136.84
2023-04-28T10:33:54.870Z,50148.45
2023-04-28T10:36:51.131Z,50158.44
2023-04-28T10:39:22.445Z,50152.04
2023-04-28T10:41:51.715Z,50146.45
2023-04-28T10:44:29.129Z,50141.24
2023-04-28T10:47:07.339Z,50139.24
2023-04-28T10:49:54.852Z,50136.45
2023-04-28T10:52:38.630Z,50147.24
2023-04-28T10:55:38.060Z,50139.25
2023-04-28T10:58:31.811Z,50146.04
2023-04-28T11:01:19.184Z,50140.45
2023-04-28T11:04:01.326Z,50140.84
2023-04-28T11:06:54.843Z,50122.85
2023-04-28T11:09:32.418Z,50128.05
2023-04-28T11:12:00.713Z,50136.84
2023-04-28T11:14:30.243Z,50124.45
2023-04-28T11:17:01.883Z,50115.65
2023-04-28T11:19:33.678Z,50132.05
2023-04-28T11:22:17.838Z,50107.26
2023-04-28T11:24:59.966Z,50112.45
2023-04-28T11:27:30.980Z,50117.66
2023-04-28T11:30:00.260Z,50106.46
2023-04-28T11:32:32.023Z,50106.86
2023-04-28T11:35:00.643Z,50093.66
2023-04-28T11:37:29.667Z,50106.05
2023-04-28T11:39:57.990Z,50112.85
2023-04-28T11:42:28.615Z,50096.86
2023-04-28T11:44:57.122Z,50107.65
2023-04-28T11:47:33.891Z,50113.66
2023-04-28T11:50:03.524Z,50123.65
2023-04-28T11:52:32.070Z,50113.65
2023-04-28T11:55:02.468Z,50123.25
2023-04-28T11:57:31.125Z,50104.86
2023-04-28T12:00:14.589Z,50118.85
2023-04-28T12:02:44.302Z,50112.05
2023-04-28T12:05:13.379Z,50129.65
2023-04-28T12:07:44.460Z,50119.65
2023-04-28T12:10:17.509Z,50100.06
2023-04-28T12:12:52.611Z,50105.66
2023-04-28T12:15:22.941Z,50079.67
2023-04-28T12:17:52.073Z,50088.46
2023-04-28T12:20:39.798Z,50112.05
2023-04-28T12:23:08.722Z,50107.26
2023-04-28T12:25:50.237Z,50112.86
2023-04-28T12:28:18.503Z,50100.06
2023-04-28T12:30:47.121Z,50112.05
2023-04-28T12:33:27.644Z,50116.05
2023-04-28T12:35:59.799Z,50100.06
2023-04-28T12:38:28.683Z,50113.65
2023-04-28T12:40:57.510Z,50089.26
2023-04-28T12:43:27.252Z,50098.46
2023-04-28T12:45:57.022Z,50104.86
2023-04-28T12:48:25.669Z,50094.46
2023-04-28T12:51:00.228Z,50103.26
2023-04-28T12:53:28.612Z,50097.26
2023-04-28T12:55:57.719Z,50112.05
2023-04-28T12:58:28.903Z,50090.07
2023-04-28T13:00:57.280Z,50116.85
2023-04-28T13:03:26.250Z,50124.05
2023-04-28T13:05:55.001Z,50112.05
2023-04-28T13:08:23.218Z,50114.46
2023-04-28T13:10:51.866Z,50106.05
2023-04-28T13:13:20.187Z,50122.45
2023-04-28T13:15:48.646Z,50127.65
2023-04-28T13:18:16.956Z,50113.65
2023-04-28T13:20:46.086Z,50122.45
2023-04-28T13:23:17.373Z,50122.85
2023-04-28T13:25:47.674Z,50122.45
2023-04-28T13:28:15.986Z,50130.05
2023-04-28T13:30:44.294Z,50125.65
2023-04-28T13:33:12.834Z,50116.05
2023-04-28T13:35:41.268Z,50133.64
2023-04-28T13:38:09.513Z,50126.45
2023-04-28T13:40:39.327Z,50131.25
2023-04-28T13:43:08.501Z,50129.25
2023-04-28T13:45:37.091Z,50110.45
2023-04-28T13:48:05.523Z,50126.85
2023-04-28T13:50:36.203Z,50123.25
2023-04-28T13:53:05.767Z,50140.85
2023-04-28T13:55:34.353Z,50119.25
2023-04-28T13:58:05.009Z,50117.25
2023-04-28T14:00:35.630Z,50132.85
2023-04-28T14:03:04.210Z,50122.45
2023-04-28T14:05:42.091Z,50137.64
2023-04-28T14:08:20.300Z,50113.25
2023-04-28T14:10:50.035Z,50122.45
2023-04-28T14:13:19.677Z,50133.65
2023-04-28T14:15:58.680Z,50132.05
2023-04-28T14:18:28.947Z,50151.24
2023-04-28T14:20:57.490Z,50126.85
2023-04-28T14:23:26.917Z,50138.04
2023-04-28T14:25:56.206Z,50134.45
2023-04-28T14:28:24.742Z,50143.24
2023-04-28T14:30:58.399Z,50110.85
2023-04-28T14:33:27.139Z,50144.04
2023-04-28T14:35:55.410Z,50141.64
2023-04-28T14:38:23.992Z,50130.05
2023-04-28T14:40:52.239Z,50122.85
2023-04-28T14:43:21.070Z,50126.45
2023-04-28T14:45:49.821Z,50145.24
2023-04-28T14:48:18.203Z,50118.86
2023-04-28T14:50:46.446Z,50134.45
2023-04-28T14:53:15.379Z,50134.45
2023-04-28T14:55:43.748Z,50128.85
2023-04-28T14:58:12.513Z,50135.25
2023-04-28T15:00:42.109Z,50133.65
2023-04-28T15:03:11.060Z,50125.65
2023-04-28T15:05:40.452Z,50152.44
2023-04-28T15:08:09.119Z,50135.65
2023-04-28T15:10:40.680Z,50139.65
2023-04-28T15:13:09.765Z,50138.45
2023-04-28T15:15:38.447Z,50141.24
2023-04-28T15:18:06.847Z,50122.85
2023-04-28T15:20:37.482Z,50130.05
2023-04-28T15:23:06.101Z,50144.45
2023-04-28T15:25:34.318Z,50123.65
2023-04-28T15:28:04.156Z,50138.85
2023-04-28T15:30:32.998Z,50152.44
2023-04-28T15:33:01.859Z,50130.85
2023-04-28T15:35:32.491Z,50148.84
2023-04-28T15:38:02.783Z,50130.85
2023-04-28T15:40:31.078Z,50134.45
2023-04-28T15:42:59.388Z,50142.45
2023-04-28T15:45:27.721Z,50146.84
2023-04-28T15:47:56.762Z,50148.04
2023-04-28T15:50:25.101Z,50137.64
2023-04-28T15:52:53.751Z,50130.05
2023-04-28T15:55:23.002Z,50128.45
2023-04-28T15:57:52.996Z,50132.45
2023-04-28T16:00:21.264Z,50145.64
2023-04-28T16:02:49.622Z,50146.45
2023-04-28T16:05:18.096Z,50148.45
2023-04-28T16:07:48.278Z,50146.84
2023-04-28T16:10:16.969Z,50149.64
2023-04-28T16:12:45.470Z,50166.84
2023-04-28T16:15:14.554Z,50155.24
2023-04-28T16:17:44.513Z,50138.45
2023-04-28T16:20:15.650Z,50148.84
2023-04-28T16:22:44.415Z,50151.24
2023-04-28T16:25:12.726Z,50160.84
2023-04-28T16:27:42.539Z,50161.64
2023-04-28T16:30:11.246Z,50141.64
2023-04-28T16:32:40.989Z,50168.84
2023-04-28T16:35:15.113Z,50150.45
2023-04-28T16:37:44.072Z,50164.04
2023-04-28T16:40:13.457Z,50160.04
2023-04-28T16:42:43.757Z,50146.45
2023-04-28T16:45:13.197Z,50142.04
2023-04-28T16:47:44.935Z,50143.64
2023-04-28T16:50:17.639Z,50138.04
2023-04-28T16:52:46.046Z,50151.24
2023-04-28T16:55:14.456Z,50136.05
2023-04-28T16:57:43.178Z,50157.24
2023-04-28T17:00:12.318Z,50156.84
2023-04-28T17:02:42.891Z,50154.84
2023-04-28T17:05:11.569Z,50150.44
2023-04-28T17:07:39.771Z,50158.84
2023-04-28T17:10:08.588Z,50153.64
2023-04-28T17:12:37.625Z,50158.84
2023-04-28T17:15:09.628Z,50168.03
2023-04-28T17:17:37.929Z,50174.43
2023-04-28T17:20:07.187Z,50166.43
2023-04-28T17:22:35.828Z,50175.23
2023-04-28T17:25:04.634Z,50180.83
2023-04-28T17:27:35.434Z,50200.02
2023-04-28T17:30:04.524Z,50178.43
2023-04-28T17:32:33.613Z,50191.23
2023-04-28T17:35:02.281Z,50175.63
2023-04-28T17:37:33.031Z,50185.23
2023-04-28T17:40:02.092Z,50178.84
2023-04-28T17:42:31.880Z,50195.23
2023-04-28T17:45:00.208Z,50189.63
2023-04-28T17:47:28.733Z,50191.63
2023-04-28T17:49:57.050Z,50178.83
2023-04-28T17:52:25.485Z,50197.23
2023-04-28T17:54:56.459Z,50174.83
2023-04-28T17:57:25.100Z,50187.63
2023-04-28T17:59:53.475Z,50185.63
2023-04-28T18:02:21.974Z,50202.02
2023-04-28T18:04:51.429Z,50186.43
2023-04-28T18:07:20.035Z,50193.23
2023-04-28T18:09:48.228Z,50184.83
2023-04-28T18:12:17.323Z,50173.23
2023-04-28T18:14:45.683Z,50192.43
2023-04-28T18:17:14.884Z,50196.83
2023-04-28T18:19:43.433Z,50205.23
2023-04-28T18:22:11.850Z,50172.84
2023-04-28T18:24:40.375Z,50180.83
2023-04-28T18:27:09.115Z,50211.62
2023-04-28T18:29:37.304Z,50184.83
2023-04-28T18:32:06.074Z,50194.43
2023-04-28T18:34:34.566Z,50205.22
2023-04-28T18:37:02.872Z,50196.02
2023-04-28T18:39:31.036Z,50190.82
2023-04-28T18:42:02.047Z,50200.82
2023-04-28T18:44:31.325Z,50213.62
2023-04-28T18:47:00.250Z,50218.42
2023-04-28T18:49:32.394Z,50206.42
2023-04-28T18:52:03.716Z,50201.63
2023-04-28T18:54:35.090Z,50200.43
2023-04-28T18:57:05.330Z,50202.02
2023-04-28T18:59:33.809Z,50200.02
2023-04-28T19:02:03.705Z,50193.63
2023-04-28T19:04:32.333Z,50193.23
2023-04-28T19:07:00.853Z,50200.02
2023-04-28T19:09:29.220Z,50192.43
2023-04-28T19:11:59.483Z,50193.23
2023-04-28T19:14:30.535Z,50201.62
2023-04-28T19:16:59.424Z,50193.63
2023-04-28T19:19:28.144Z,50196.02
2023-04-28T19:21:59.172Z,50208.82
2023-04-28T19:24:29.532Z,50212.02
2023-04-28T19:26:58.468Z,50221.62
2023-04-28T19:29:26.641Z,50214.42
2023-04-28T19:31:55.001Z,50214.42
2023-04-28T19:34:23.224Z,50226.82
2023-04-28T19:36:51.483Z,50224.02
2023-04-28T19:39:21.489Z,50224.02
2023-04-28T19:41:50.810Z,50222.82
2023-04-28T19:44:19.013Z,50228.81
2023-04-28T19:46:47.196Z,50237.21
2023-04-28T19:49:18.183Z,50218.82
2023-04-28T19:51:46.774Z,50234.82
2023-04-28T19:54:16.270Z,50241.21
2023-04-28T19:56:45.433Z,50214.41
2023-04-28T19:59:14.625Z,50227.62
2023-04-28T20:01:44.069Z,50224.41
2023-04-28T20:04:13.005Z,50235.21
2023-04-28T20:06:42.957Z,50225.21
2023-04-28T20:09:11.223Z,50238.80
2023-04-28T20:11:40.505Z,50228.41
2023-04-28T20:14:09.765Z,50223.61
2023-04-28T20:16:38.069Z,50232.41
2023-04-28T20:19:06.296Z,50236.81
2023-04-28T20:21:37.000Z,50237.61
2023-04-28T20:24:07.237Z,50233.21
2023-04-28T20:26:36.969Z,50244.01
2023-04-28T20:29:08.284Z,50246.80
2023-04-28T20:31:36.870Z,50247.61
2023-04-28T20:34:05.149Z,50259.61
2023-04-28T20:36:33.492Z,50257.20
2023-04-28T20:39:02.416Z,50259.61
2023-04-28T20:41:31.488Z,50248.80
2023-04-28T20:44:01.414Z,50254.01
2023-04-28T20:46:30.061Z,50249.21
2023-04-28T20:48:58.359Z,50267.20
2023-04-28T20:51:26.666Z,50257.60
2023-04-28T20:53:54.844Z,50252.01
2023-04-28T20:56:23.105Z,50262.41
2023-04-28T20:58:51.451Z,50279.20
2023-04-28T21:01:19.851Z,50255.21
2023-04-28T21:03:48.195Z,50272.40
2023-04-28T21:06:17.042Z,50266.80
2023-04-28T21:08:45.388Z,50250.41
2023-04-28T21:11:15.266Z,50262.40
2023-04-28T21:13:45.222Z,50264.80
2023-04-28T21:16:20.912Z,50276.40
2023-04-28T21:18:50.117Z,50294.39
2023-04-28T21:21:18.800Z,50290.80
2023-04-28T21:23:47.130Z,50293.59
2023-04-28T21:26:15.524Z,50269.60
2023-04-28T21:28:44.098Z,50287.99
2023-04-28T21:31:12.387Z,50282.00
2023-04-28T21:33:43.499Z,50276.00
2023-04-28T21:36:12.723Z,50295.19
2023-04-28T21:38:41.188Z,50280.39
2023-04-28T21:41:15.625Z,50287.59
2023-04-28T21:43:45.843Z,50276.80
2023-04-28T21:46:14.755Z,50291.59
2023-04-28T21:48:42.956Z,50274.40
2023-04-28T21:51:11.300Z,50278.40
2023-04-28T21:53:39.987Z,50286.39
2023-04-28T21:56:08.360Z,50288.39
2023-04-28T21:58:36.585Z,50275.20
2023-04-28T22:01:05.588Z,50284.79
2023-04-28T22:03:36.868Z,50308.79
2023-04-28T22:06:05.887Z,50268.00
2023-04-28T22:08:34.550Z,50297.59
2023-04-28T22:11:02.849Z,50278.80
2023-04-28T22:13:31.080Z,50294.39
2023-04-28T22:15:59.385Z,50295.99
2023-04-28T22:18:28.741Z,50288.79
2023-04-28T22:20:56.955Z,50282.39
2023-04-28T22:23:25.453Z,50296.79
2023-04-28T22:25:53.741Z,50288.00
2023-04-28T22:28:22.799Z,50293.99
2023-04-28T22:30:51.072Z,50295.19
2023-04-28T22:33:19.267Z,50294.79
2023-04-28T22:35:47.487Z,50283.59
2023-04-28T22:38:15.752Z,50304.39
2023-04-28T22:40:49.747Z,50287.99
2023-04-28T22:43:17.909Z,50293.99
2023-04-28T22:45:46.290Z,50299.19
2023-04-28T22:48:14.504Z,50286.40
2023-04-28T22:50:43.695Z,50311.98
2023-04-28T22:53:11.949Z,50293.19
2023-04-28T22:55:40.107Z,50286.79
2023-04-28T22:58:09.767Z,50287.99
2023-04-28T23:00:38.186Z,50276.80
2023-04-28T23:03:06.466Z,50300.39
2023-04-28T23:05:38.469Z,50289.99
2023-04-28T23:08:06.630Z,50311.18
2023-04-28T23:10:34.852Z,50292.39
2023-04-28T23:13:03.048Z,50303.59
2023-04-28T23:15:31.516Z,50312.79
2023-04-28T23:17:59.801Z,50288.39
2023-04-28T23:20:28.772Z,50299.19
2023-04-28T23:22:58.382Z,50287.60
2023-04-28T23:25:27.023Z,50299.59
2023-04-28T23:27:55.203Z,50304.39
2023-04-28T23:30:23.365Z,50303.99
2023-04-28T23:32:51.597Z,50298.79
2023-04-28T23:35:19.799Z,50307.59
2023-04-28T23:37:48.010Z,50292.39
2023-04-28T23:40:16.465Z,50317.18
2023-04-28T23:42:44.651Z,50305.59
2023-04-28T23:45:13.051Z,50291.20
2023-04-28T23:47:42.014Z,50285.59
2023-04-28T23:50:10.935Z,50279.99
2023-04-28T23:52:40.611Z,50304.39
2023-04-28T23:55:10.581Z,50305.59
2023-04-28T23:57:40.113Z,50296.39
